Time;durP1;ratioP1;P1;durP2;ratioP2;P2;SDS_P1;SDS_P2;PMS_P1;PMS_P2;Temp;Humidity;BMP_temperature;BMP_pressure;BME280_temperature;BME280_humidity;BME280_pressure;Samples;Min_cycle;Max_cycle;Signal;HPM_P1;HPM_P2
2021/08/25 00:02:00;;;;;;;1.60;1.20;;;21.60;72.70;;;;;;5134098;27;20395;-50
2021/08/25 00:04:26;;;;;;;1.65;1.20;;;21.60;72.70;;;;;;5133905;27;20116;-52
2021/08/25 00:06:51;;;;;;;1.30;1.20;;;21.60;72.70;;;;;;5133216;27;20510;-53
2021/08/25 00:09:17;;;;;;;1.20;1.10;;;21.60;72.70;;;;;;5133272;27;20138;-52
2021/08/25 00:11:42;;;;;;;1.65;1.42;;;21.60;72.70;;;;;;5146977;27;20458;-52
2021/08/25 00:14:08;;;;;;;1.77;1.30;;;21.60;72.70;;;;;;5135910;27;20062;-52
2021/08/25 00:16:34;;;;;;;1.10;1.00;;;21.60;72.70;;;;;;5146196;27;20054;-48
2021/08/25 00:19:00;;;;;;;1.60;1.25;;;21.60;72.70;;;;;;5150955;27;20035;-53
2021/08/25 00:21:25;;;;;;;1.10;1.00;;;21.60;72.70;;;;;;5147063;27;20045;-51
2021/08/25 00:23:51;;;;;;;1.17;1.00;;;21.60;72.80;;;;;;5135112;27;20039;-52
2021/08/25 00:26:16;;;;;;;1.23;1.05;;;21.60;72.80;;;;;;5132912;28;20043;-53
2021/08/25 00:28:42;;;;;;;0.90;0.90;;;21.60;72.80;;;;;;5137722;27;20051;-53
2021/08/25 00:31:08;;;;;;;1.58;1.30;;;21.60;72.80;;;;;;5146583;27;20047;-49
2021/08/25 00:33:33;;;;;;;1.20;1.10;;;21.60;72.80;;;;;;5132258;28;20046;-52
2021/08/25 00:35:59;;;;;;;1.27;1.10;;;21.60;72.80;;;;;;5133683;27;20051;-48
2021/08/25 00:38:25;;;;;;;1.33;1.23;;;21.50;72.70;;;;;;5133099;28;20035;-53
2021/08/25 00:40:50;;;;;;;1.13;1.00;;;21.60;72.80;;;;;;5147484;27;20043;-52
2021/08/25 00:43:16;;;;;;;1.35;1.25;;;21.40;72.70;;;;;;5154127;27;20043;-49
2021/08/25 00:45:45;;;;;;;1.25;1.05;;;21.50;72.80;;;;;;5153791;27;20042;-52
2021/08/25 00:48:15;;;;;;;1.60;1.20;;;21.50;72.80;;;;;;5153135;27;20043;-53
2021/08/25 00:50:41;;;;;;;1.23;1.13;;;21.50;72.80;;;;;;5144175;27;20046;-53
2021/08/25 00:53:07;;;;;;;1.33;1.23;;;21.50;72.80;;;;;;5136017;27;20106;-53
2021/08/25 00:55:43;;;;;;;1.10;1.00;;;21.50;72.80;;;;;;5134176;27;20092;-52
2021/08/25 00:58:09;;;;;;;1.70;1.20;;;21.50;72.80;;;;;;5146363;27;20372;-52
2021/08/25 01:00:44;;;;;;;1.27;1.15;;;21.50;72.80;;;;;;5148184;27;20047;-52
2021/08/25 01:03:26;;;;;;;1.40;1.17;;;21.50;72.90;;;;;;5132984;27;20157;-52
2021/08/25 01:05:52;;;;;;;1.30;1.10;;;21.50;72.80;;;;;;5133736;27;20046;-51
2021/08/25 01:08:18;;;;;;;1.20;1.10;;;21.50;72.80;;;;;;5149694;27;20039;-47
2021/08/25 01:10:44;;;;;;;1.20;1.10;;;21.50;72.90;;;;;;5153365;27;20051;-53
2021/08/25 01:13:11;;;;;;;1.48;1.15;;;21.50;72.80;;;;;;5153668;27;20050;-52
2021/08/25 01:15:39;;;;;;;1.13;1.02;;;21.50;72.80;;;;;;5149800;27;20031;-52
2021/08/25 01:18:09;;;;;;;1.75;1.30;;;21.50;72.90;;;;;;5134126;27;20039;-49
2021/08/25 01:20:35;;;;;;;0.90;0.90;;;21.50;72.80;;;;;;5140631;27;20473;-49
2021/08/25 01:23:01;;;;;;;1.17;1.08;;;21.50;72.90;;;;;;5140152;27;20126;-48
2021/08/25 01:25:29;;;;;;;0.98;0.95;;;21.50;73.50;;;;;;5157401;27;20126;-47
2021/08/25 01:28:04;;;;;;;0.95;0.88;;;21.50;72.90;;;;;;5146328;27;20035;-50
2021/08/25 01:30:34;;;;;;;1.42;1.30;;;21.50;72.90;;;;;;5155122;27;20039;-49
2021/08/25 01:33:00;;;;;;;1.10;1.00;;;21.50;72.90;;;;;;5136357;27;20039;-46
2021/08/25 01:35:36;;;;;;;1.00;0.90;;;21.50;72.90;;;;;;5135881;27;20039;-48
2021/08/25 01:38:03;;;;;;;0.90;0.90;;;21.50;72.90;;;;;;5137180;27;20058;-51
2021/08/25 01:40:29;;;;;;;0.90;0.90;;;21.50;72.90;;;;;;5136156;27;20043;-52
2021/08/25 01:42:55;;;;;;;1.10;0.95;;;21.50;72.90;;;;;;5141704;27;20038;-51
2021/08/25 01:45:20;;;;;;;1.83;1.40;;;21.50;72.90;;;;;;5154404;27;20478;-52
2021/08/25 01:47:46;;;;;;;1.20;1.00;;;21.50;72.90;;;;;;5149591;27;20036;-52
2021/08/25 01:50:15;;;;;;;1.10;1.00;;;21.50;72.90;;;;;;5141361;27;20038;-49
2021/08/25 01:52:40;;;;;;;1.30;1.20;;;21.50;72.90;;;;;;5138762;27;20043;-49
2021/08/25 01:55:06;;;;;;;1.10;1.00;;;21.50;72.90;;;;;;5139392;27;20041;-49
2021/08/25 01:57:32;;;;;;;1.42;1.10;;;21.40;72.80;;;;;;5156119;27;20102;-52
2021/08/25 01:59:58;;;;;;;1.02;0.90;;;21.40;72.90;;;;;;5154105;27;20058;-49
2021/08/25 02:02:24;;;;;;;1.35;1.08;;;21.40;72.90;;;;;;5156442;27;20115;-50
2021/08/25 02:04:49;;;;;;;1.83;0.95;;;21.50;72.90;;;;;;5155969;27;20481;-51
2021/08/25 02:07:15;;;;;;;1.08;0.90;;;21.40;72.90;;;;;;5136292;27;20492;-52
2021/08/25 02:09:41;;;;;;;1.13;1.02;;;21.50;72.90;;;;;;5136421;27;20031;-52
2021/08/25 02:12:07;;;;;;;1.10;1.00;;;21.40;72.90;;;;;;5135382;27;20048;-52
2021/08/25 02:14:33;;;;;;;0.77;0.77;;;21.40;72.90;;;;;;5139892;27;20099;-51
2021/08/25 02:16:59;;;;;;;1.27;1.15;;;21.50;73.00;;;;;;5138659;27;20051;-51
2021/08/25 02:19:24;;;;;;;1.13;1.00;;;21.40;72.90;;;;;;5154787;27;20394;-52
2021/08/25 02:21:50;;;;;;;1.83;1.30;;;21.40;72.90;;;;;;5155032;27;20038;-52
2021/08/25 02:24:16;;;;;;;0.85;0.85;;;21.40;72.90;;;;;;5155402;27;20401;-51
2021/08/25 02:26:41;;;;;;;1.27;1.15;;;21.40;72.90;;;;;;5141090;27;20047;-49
2021/08/25 02:29:07;;;;;;;1.13;0.90;;;21.40;72.90;;;;;;5135026;27;20039;-48
2021/08/25 02:31:32;;;;;;;0.75;0.73;;;21.40;73.00;;;;;;5122280;27;20046;-52
2021/08/25 02:33:58;;;;;;;0.93;0.90;;;21.40;73.00;;;;;;5154897;27;20038;-47
2021/08/25 02:36:24;;;;;;;1.10;0.90;;;21.40;73.00;;;;;;5134757;27;20483;-53
2021/08/25 02:38:50;;;;;;;1.08;0.90;;;21.40;73.00;;;;;;5134730;27;20043;-43
2021/08/25 02:41:17;;;;;;;0.93;0.80;;;21.50;73.00;;;;;;5153737;27;20073;-53
2021/08/25 02:43:43;;;;;;;0.80;0.80;;;21.40;73.00;;;;;;5155867;27;20035;-53
2021/08/25 02:46:08;;;;;;;0.80;0.80;;;21.40;73.00;;;;;;5153573;27;20609;-53
2021/08/25 02:48:34;;;;;;;0.90;0.77;;;21.40;73.00;;;;;;5155761;27;20371;-53
2021/08/25 02:51:00;;;;;;;1.05;0.95;;;21.40;73.00;;;;;;5134983;27;20391;-52
2021/08/25 02:53:25;;;;;;;1.35;0.98;;;21.40;73.00;;;;;;5136194;27;20501;-49
2021/08/25 02:55:51;;;;;;;0.90;0.90;;;21.40;73.00;;;;;;5134408;27;20047;-48
2021/08/25 02:58:17;;;;;;;1.15;0.90;;;21.40;73.00;;;;;;5134773;27;20429;-51
2021/08/25 03:00:42;;;;;;;1.33;1.10;;;21.30;73.00;;;;;;5140661;27;20091;-48
2021/08/25 03:03:08;;;;;;;0.90;0.85;;;21.40;73.00;;;;;;5153500;27;20122;-49
2021/08/25 03:05:35;;;;;;;0.93;0.93;;;21.40;73.00;;;;;;5155422;27;20391;-52
2021/08/25 03:08:01;;;;;;;1.33;1.00;;;21.40;73.00;;;;;;5154935;27;20394;-49
2021/08/25 03:10:26;;;;;;;0.70;0.70;;;21.40;73.10;;;;;;5150599;27;20146;-52
2021/08/25 03:12:52;;;;;;;0.73;0.73;;;21.40;73.00;;;;;;5135399;27;20042;-50
2021/08/25 03:15:18;;;;;;;0.77;0.70;;;21.40;73.10;;;;;;5134080;27;20098;-53
2021/08/25 03:17:43;;;;;;;1.13;0.98;;;21.40;73.00;;;;;;5133980;27;20462;-51
2021/08/25 03:20:11;;;;;;;0.93;0.80;;;21.40;73.10;;;;;;5139804;27;20039;-52
2021/08/25 03:22:37;;;;;;;0.63;0.63;;;21.40;73.10;;;;;;5136870;27;20078;-50
2021/08/25 03:25:04;;;;;;;0.70;0.70;;;21.30;73.00;;;;;;5135558;27;20046;-50
2021/08/25 03:27:30;;;;;;;0.85;0.70;;;21.40;73.10;;;;;;5115796;27;20046;-53
2021/08/25 03:29:56;;;;;;;1.10;1.00;;;21.30;73.00;;;;;;5134092;27;20571;-48
2021/08/25 03:32:22;;;;;;;1.05;0.93;;;21.30;73.00;;;;;;5134142;27;20039;-49
2021/08/25 03:34:48;;;;;;;0.75;0.75;;;21.30;73.00;;;;;;5134873;27;20047;-51
2021/08/25 03:37:13;;;;;;;1.02;0.93;;;21.40;73.10;;;;;;5134131;27;20032;-53
2021/08/25 03:39:39;;;;;;;0.85;0.77;;;21.30;73.00;;;;;;5138416;27;20046;-51
2021/08/25 03:42:04;;;;;;;0.95;0.90;;;21.30;73.00;;;;;;5153839;27;20508;-50
2021/08/25 03:44:30;;;;;;;0.80;0.73;;;21.30;73.10;;;;;;5138431;27;20042;-48
2021/08/25 03:46:56;;;;;;;1.00;0.90;;;21.30;73.10;;;;;;5134788;27;20494;-51
2021/08/25 03:49:21;;;;;;;0.80;0.70;;;21.30;73.10;;;;;;5133885;27;20043;-45
2021/08/25 03:51:47;;;;;;;0.70;0.70;;;21.30;73.10;;;;;;5147190;27;20102;-50
2021/08/25 03:54:13;;;;;;;0.85;0.80;;;21.30;73.10;;;;;;5154481;27;20051;-49
2021/08/25 03:56:40;;;;;;;1.00;0.80;;;21.30;73.10;;;;;;5152520;27;20057;-49
2021/08/25 03:59:06;;;;;;;0.80;0.80;;;21.30;73.10;;;;;;5154106;27;20034;-48
2021/08/25 04:01:31;;;;;;;0.60;0.60;;;21.30;73.10;;;;;;5141048;27;20035;-52
2021/08/25 04:03:57;;;;;;;0.70;0.70;;;21.30;73.10;;;;;;5133301;27;20058;-48
2021/08/25 04:06:22;;;;;;;1.00;0.90;;;21.30;73.10;;;;;;5148362;27;20118;-48
2021/08/25 04:08:48;;;;;;;0.57;0.57;;;21.30;73.10;;;;;;5133517;27;20088;-49
2021/08/25 04:11:18;;;;;;;1.02;0.93;;;21.30;73.10;;;;;;5133184;27;20070;-50
2021/08/25 04:13:44;;;;;;;0.70;0.70;;;21.30;73.10;;;;;;5133128;27;20072;-49
2021/08/25 04:16:09;;;;;;;0.80;0.60;;;21.30;73.10;;;;;;5142730;27;20125;-44
2021/08/25 04:18:35;;;;;;;0.80;0.70;;;21.30;73.10;;;;;;5152218;27;20114;-52
2021/08/25 04:21:01;;;;;;;0.90;0.90;;;21.30;73.10;;;;;;5153085;27;20509;-48
2021/08/25 04:23:26;;;;;;;0.70;0.70;;;21.30;73.10;;;;;;5153926;27;20048;-51
2021/08/25 04:25:52;;;;;;;0.80;0.80;;;21.30;73.10;;;;;;5145581;27;20554;-52
2021/08/25 04:28:18;;;;;;;0.80;0.80;;;21.30;73.20;;;;;;5132575;27;20139;-50
2021/08/25 04:30:44;;;;;;;0.90;0.90;;;21.20;73.10;;;;;;5137736;27;20091;-48
2021/08/25 04:33:10;;;;;;;0.80;0.80;;;21.30;73.20;;;;;;5152793;27;20042;-46
2021/08/25 04:35:35;;;;;;;0.70;0.70;;;21.30;73.20;;;;;;5148462;27;20441;-48
2021/08/25 04:38:01;;;;;;;0.68;0.68;;;21.30;73.20;;;;;;5134170;27;20459;-51
2021/08/25 04:40:26;;;;;;;0.70;0.60;;;21.30;73.20;;;;;;5115072;28;20039;-53
2021/08/25 04:42:52;;;;;;;0.82;0.70;;;21.30;73.20;;;;;;5133246;27;20047;-51
2021/08/25 04:45:18;;;;;;;1.25;1.00;;;21.20;73.10;;;;;;5133483;27;20043;-53
2021/08/25 04:47:43;;;;;;;1.10;0.90;;;21.30;73.20;;;;;;5132628;28;20405;-53
2021/08/25 04:50:10;;;;;;;0.85;0.80;;;21.30;73.20;;;;;;5134024;27;20108;-53
2021/08/25 04:52:35;;;;;;;1.02;0.70;;;21.20;73.20;;;;;;5149918;27;20038;-51
2021/08/25 04:55:01;;;;;;;0.88;0.80;;;21.30;73.20;;;;;;5153276;27;20043;-53
2021/08/25 04:57:26;;;;;;;0.70;0.60;;;21.20;73.20;;;;;;5132812;27;20046;-52
2021/08/25 04:59:52;;;;;;;0.75;0.75;;;21.20;73.10;;;;;;5137612;27;20035;-52
2021/08/25 05:02:17;;;;;;;0.98;0.90;;;21.30;73.20;;;;;;5138565;27;20043;-49
2021/08/25 05:04:46;;;;;;;0.60;0.60;;;21.20;73.20;;;;;;5150476;27;20098;-50
2021/08/25 05:07:13;;;;;;;0.80;0.80;;;21.20;73.20;;;;;;5147625;27;20039;-51
2021/08/25 05:09:39;;;;;;;1.00;0.90;;;21.20;73.20;;;;;;5137816;27;20047;-52
2021/08/25 05:12:05;;;;;;;1.02;0.90;;;21.20;73.20;;;;;;5136641;27;20073;-52
2021/08/25 05:14:30;;;;;;;0.63;0.60;;;21.20;73.20;;;;;;5136593;27;20047;-51
2021/08/25 05:16:56;;;;;;;0.70;0.70;;;21.20;73.20;;;;;;5135818;27;20479;-50
2021/08/25 05:19:22;;;;;;;0.77;0.77;;;21.20;73.20;;;;;;5137121;27;20092;-48
2021/08/25 05:21:48;;;;;;;0.88;0.80;;;21.20;73.20;;;;;;5136013;27;20152;-50
2021/08/25 05:24:13;;;;;;;0.77;0.77;;;21.20;73.20;;;;;;5147068;27;20032;-50
2021/08/25 05:26:39;;;;;;;0.85;0.85;;;21.30;73.20;;;;;;5135170;27;20099;-49
2021/08/25 05:29:05;;;;;;;0.82;0.80;;;21.20;73.20;;;;;;5157177;27;20042;-52
2021/08/25 05:31:30;;;;;;;0.60;0.60;;;21.20;73.20;;;;;;5132019;27;20035;-51
2021/08/25 05:33:56;;;;;;;0.70;0.70;;;21.20;73.20;;;;;;5156928;27;20054;-48
2021/08/25 05:36:22;;;;;;;0.70;0.70;;;21.20;73.20;;;;;;5156585;27;20034;-48
2021/08/25 05:38:48;;;;;;;0.68;0.60;;;21.20;73.20;;;;;;5157294;27;20159;-51
2021/08/25 05:41:13;;;;;;;1.10;0.77;;;21.20;73.20;;;;;;5154834;27;20490;-50
2021/08/25 05:43:39;;;;;;;1.05;0.95;;;21.20;73.20;;;;;;5148487;27;20035;-50
2021/08/25 05:46:05;;;;;;;1.15;1.00;;;21.20;73.20;;;;;;5148269;27;20038;-44
2021/08/25 05:48:30;;;;;;;0.68;0.68;;;21.20;73.20;;;;;;5156567;27;20091;-50
2021/08/25 05:50:56;;;;;;;0.70;0.70;;;21.20;73.30;;;;;;5147347;27;20043;-49
2021/08/25 05:53:22;;;;;;;1.00;0.80;;;21.20;73.20;;;;;;5154811;27;20081;-49
2021/08/25 05:55:47;;;;;;;0.80;0.80;;;21.20;73.20;;;;;;5138509;27;20050;-46
2021/08/25 05:58:13;;;;;;;0.60;0.60;;;21.20;73.20;;;;;;5135418;27;20035;-51
2021/08/25 06:00:38;;;;;;;0.73;0.63;;;21.20;73.20;;;;;;5135637;27;20080;-49
2021/08/25 06:03:05;;;;;;;0.82;0.70;;;21.20;73.20;;;;;;5136446;27;20039;-47
2021/08/25 06:05:31;;;;;;;0.80;0.80;;;21.20;73.30;;;;;;5139668;27;20042;-49
2021/08/25 06:07:56;;;;;;;0.88;0.80;;;21.20;73.20;;;;;;5137372;27;20071;-49
2021/08/25 06:10:22;;;;;;;1.23;0.88;;;21.20;73.20;;;;;;5137392;27;20070;-49
2021/08/25 06:12:48;;;;;;;0.70;0.70;;;21.20;73.30;;;;;;5135208;27;20130;-46
2021/08/25 06:15:14;;;;;;;0.75;0.63;;;21.20;73.20;;;;;;5136487;27;20390;-48
2021/08/25 06:17:39;;;;;;;0.60;0.60;;;21.20;73.30;;;;;;5135514;27;20088;-48
2021/08/25 06:20:06;;;;;;;0.80;0.60;;;21.20;73.30;;;;;;5146103;27;20062;-46
2021/08/25 06:22:31;;;;;;;0.80;0.80;;;21.20;73.30;;;;;;5138320;27;20076;-48
2021/08/25 06:24:57;;;;;;;0.80;0.80;;;21.20;73.20;;;;;;5153860;27;20039;-46
2021/08/25 06:27:24;;;;;;;0.70;0.70;;;21.20;73.30;;;;;;5155334;27;20039;-48
2021/08/25 06:29:50;;;;;;;0.93;0.82;;;21.20;73.30;;;;;;5147684;27;20080;-49
2021/08/25 06:32:15;;;;;;;0.77;0.70;;;21.20;73.30;;;;;;5135127;27;20421;-50
2021/08/25 06:34:41;;;;;;;1.10;0.90;;;21.20;73.30;;;;;;5135610;27;20394;-48
2021/08/25 06:37:06;;;;;;;0.60;0.60;;;21.10;73.20;;;;;;5134504;27;20043;-48
2021/08/25 06:39:32;;;;;;;0.73;0.70;;;21.20;73.30;;;;;;5134759;27;20122;-52
2021/08/25 06:41:58;;;;;;;0.80;0.80;;;21.20;73.30;;;;;;5134666;27;20095;-53
2021/08/25 06:44:24;;;;;;;0.65;0.65;;;21.20;73.30;;;;;;5134553;27;20035;-54
2021/08/25 06:46:49;;;;;;;1.27;0.80;;;21.20;73.20;;;;;;5135438;27;20475;-56
2021/08/25 06:49:16;;;;;;;0.70;0.70;;;21.20;73.30;;;;;;5134101;27;20059;-55
2021/08/25 06:51:42;;;;;;;0.73;0.70;;;21.20;73.30;;;;;;5137422;27;20035;-55
2021/08/25 06:54:07;;;;;;;0.80;0.60;;;21.20;73.20;;;;;;5154110;27;20042;-55
2021/08/25 06:56:33;;;;;;;0.70;0.60;;;21.20;73.20;;;;;;5150300;27;20475;-56
2021/08/25 06:58:59;;;;;;;0.77;0.73;;;21.20;73.20;;;;;;5154076;27;20050;-53
2021/08/25 07:01:25;;;;;;;0.65;0.63;;;21.20;73.20;;;;;;5153938;27;20038;-56
2021/08/25 07:03:50;;;;;;;0.80;0.65;;;21.20;73.20;;;;;;5128853;27;20047;-56
2021/08/25 07:06:16;;;;;;;0.38;0.38;;;21.20;73.20;;;;;;5135059;27;20031;-56
2021/08/25 07:08:42;;;;;;;10.18;2.97;;;21.20;73.20;;;;;;5133607;27;20039;-56
2021/08/25 07:11:07;;;;;;;5.93;2.20;;;21.30;73.00;;;;;;5143145;27;20053;-56
2021/08/25 07:13:35;;;;;;;3.22;2.20;;;21.50;72.50;;;;;;5154607;27;20052;-56
2021/08/25 07:16:00;;;;;;;3.72;2.58;;;21.50;72.90;;;;;;5145871;27;20043;-55
2021/08/25 07:18:26;;;;;;;3.33;2.00;;;21.50;72.00;;;;;;5134857;27;20491;-55
2021/08/25 07:20:52;;;;;;;4.10;3.10;;;21.50;71.90;;;;;;5106101;27;20117;-54
2021/08/25 07:23:18;;;;;;;4.32;2.13;;;21.50;71.90;;;;;;5132977;27;20507;-56
2021/08/25 07:25:44;;;;;;;4.30;2.53;;;21.50;71.80;;;;;;5133798;27;20047;-56
2021/08/25 07:28:10;;;;;;;3.22;2.25;;;21.50;71.80;;;;;;5135162;27;20039;-55
2021/08/25 07:30:35;;;;;;;3.30;2.20;;;21.40;71.80;;;;;;5144550;27;20122;-56
2021/08/25 07:33:02;;;;;;;2.78;2.00;;;21.50;71.90;;;;;;5150687;27;20570;-55
2021/08/25 07:35:29;;;;;;;2.40;2.10;;;21.40;71.80;;;;;;5154345;27;20480;-56
2021/08/25 07:37:56;;;;;;;4.30;2.10;;;21.40;71.80;;;;;;5119905;27;20043;-55
2021/08/25 07:40:22;;;;;;;2.17;1.90;;;21.40;71.90;;;;;;5135957;27;20117;-55
2021/08/25 07:42:47;;;;;;;4.50;2.00;;;21.40;71.90;;;;;;5154205;27;20130;-56
2021/08/25 07:45:13;;;;;;;1.83;1.50;;;21.40;72.00;;;;;;5151954;27;20066;-55
2021/08/25 07:47:39;;;;;;;2.67;1.73;;;21.40;72.00;;;;;;5138596;27;20401;-56
2021/08/25 07:50:05;;;;;;;3.30;1.83;;;21.40;72.10;;;;;;5151256;27;20054;-55
2021/08/25 07:52:31;;;;;;;1.95;1.40;;;21.40;72.10;;;;;;5153791;27;20455;-53
2021/08/25 07:54:57;;;;;;;1.45;1.30;;;21.40;72.10;;;;;;5152937;27;20074;-56
2021/08/25 07:57:23;;;;;;;1.65;1.30;;;21.40;72.20;;;;;;5153789;27;20089;-55
2021/08/25 07:59:48;;;;;;;3.13;1.40;;;21.40;72.20;;;;;;5152445;27;20042;-54
2021/08/25 08:02:14;;;;;;;2.10;1.40;;;21.40;72.20;;;;;;5134563;27;20374;-53
2021/08/25 08:04:40;;;;;;;2.03;1.13;;;21.40;72.20;;;;;;5132953;27;20046;-54
2021/08/25 08:07:05;;;;;;;1.33;1.23;;;21.40;72.20;;;;;;5150429;27;20512;-54
2021/08/25 08:09:31;;;;;;;1.88;1.50;;;21.40;72.20;;;;;;5151308;27;20049;-50
2021/08/25 08:11:57;;;;;;;1.65;1.17;;;21.40;72.20;;;;;;5136437;27;20059;-56
2021/08/25 08:14:22;;;;;;;1.75;1.10;;;21.40;72.20;;;;;;5143499;27;20042;-56
2021/08/25 08:16:52;;;;;;;1.33;1.02;;;21.40;72.20;;;;;;5151987;27;20080;-56
2021/08/25 08:19:20;;;;;;;1.02;0.80;;;21.50;72.30;;;;;;5134492;27;20109;-56
2021/08/25 08:21:47;;;;;;;1.48;0.90;;;21.40;72.20;;;;;;5147709;27;20051;-56
2021/08/25 08:24:13;;;;;;;1.98;1.00;;;21.40;72.20;;;;;;5114198;28;20134;-55
2021/08/25 08:26:39;;;;;;;1.45;1.23;;;21.50;72.20;;;;;;5136515;27;20039;-56
2021/08/25 08:29:05;;;;;;;1.30;1.00;;;21.50;72.20;;;;;;5132778;28;20423;-52
2021/08/25 08:31:31;;;;;;;2.35;1.00;;;21.50;72.20;;;;;;5133725;27;20031;-56
2021/08/25 08:33:57;;;;;;;0.90;0.85;;;21.50;72.20;;;;;;5136805;27;20051;-56
2021/08/25 08:36:23;;;;;;;1.65;1.00;;;21.50;72.20;;;;;;5144380;27;20445;-55
2021/08/25 08:38:48;;;;;;;2.25;0.90;;;21.50;72.20;;;;;;5157764;27;20487;-55
2021/08/25 08:41:14;;;;;;;1.42;1.08;;;21.50;72.20;;;;;;5147402;27;20058;-56
2021/08/25 08:43:44;;;;;;;1.58;1.17;;;21.60;72.20;;;;;;5136590;27;20035;-55
2021/08/25 08:46:14;;;;;;;2.22;1.00;;;21.60;72.20;;;;;;5136969;27;20039;-54
2021/08/25 08:48:41;;;;;;;0.88;0.85;;;21.60;72.20;;;;;;5136647;27;20061;-57
2021/08/25 08:51:08;;;;;;;1.42;0.95;;;21.60;72.20;;;;;;5136582;27;20043;-55
2021/08/25 08:53:34;;;;;;;1.58;0.90;;;21.60;72.20;;;;;;5137457;27;20043;-55
2021/08/25 08:55:59;;;;;;;2.00;1.05;;;21.60;72.10;;;;;;5144448;27;20042;-54
2021/08/25 08:58:25;;;;;;;0.80;0.80;;;21.60;72.10;;;;;;5156847;27;20049;-55
2021/08/25 09:00:51;;;;;;;0.80;0.77;;;21.60;72.10;;;;;;5137720;27;20432;-54
2021/08/25 09:03:26;;;;;;;1.55;1.00;;;21.60;72.10;;;;;;5155117;27;20381;-53
2021/08/25 09:05:57;;;;;;;1.02;0.77;;;21.60;72.00;;;;;;5157157;27;20034;-55
2021/08/25 09:08:26;;;;;;;1.17;1.00;;;21.60;72.00;;;;;;5153503;27;20118;-55
2021/08/25 09:11:01;;;;;;;0.80;0.80;;;21.70;72.10;;;;;;5135977;27;20134;-54
2021/08/25 09:13:37;;;;;;;1.10;0.90;;;21.70;72.00;;;;;;5137087;27;20379;-54
2021/08/25 09:16:03;;;;;;;1.48;0.90;;;21.70;72.00;;;;;;5136104;27;20051;-53
2021/08/25 09:18:29;;;;;;;2.55;1.00;;;21.70;72.00;;;;;;5141989;27;20117;-54
2021/08/25 09:20:55;;;;;;;1.00;0.77;;;21.70;72.00;;;;;;5137603;27;20122;-55
2021/08/25 09:23:23;;;;;;;1.05;0.88;;;21.70;71.90;;;;;;5135638;27;20051;-55
2021/08/25 09:25:54;;;;;;;1.15;1.05;;;21.70;71.90;;;;;;5117287;27;20089;-54
2021/08/25 09:28:29;;;;;;;1.08;0.90;;;21.70;71.90;;;;;;5135352;27;20035;-51
2021/08/25 09:31:03;;;;;;;1.00;0.77;;;21.70;71.90;;;;;;5135915;27;20108;-55
2021/08/25 09:33:34;;;;;;;1.17;0.93;;;21.70;71.90;;;;;;5150871;27;20397;-54
2021/08/25 09:36:10;;;;;;;0.70;0.70;;;21.80;71.90;;;;;;5154587;27;20043;-56
2021/08/25 09:38:37;;;;;;;1.33;0.82;;;21.70;71.90;;;;;;5156954;27;20049;-55
2021/08/25 09:41:11;;;;;;;0.68;0.68;;;21.70;71.80;;;;;;5156337;27;20095;-56
2021/08/25 09:43:36;;;;;;;0.75;0.70;;;21.80;71.90;;;;;;5155495;27;20046;-54
2021/08/25 09:46:13;;;;;;;1.48;0.70;;;21.80;71.90;;;;;;5154993;27;20064;-55
2021/08/25 09:48:44;;;;;;;0.85;0.80;;;21.80;71.80;;;;;;5153468;27;20091;-56
2021/08/25 09:51:11;;;;;;;0.70;0.70;;;21.80;71.80;;;;;;5151062;27;20046;-55
2021/08/25 09:53:37;;;;;;;0.70;0.65;;;21.80;71.80;;;;;;5156657;27;20042;-56
2021/08/25 09:56:30;;;;;;;0.80;0.80;;;21.80;71.80;;;;;;5142290;27;20043;-56
2021/08/25 09:58:56;;;;;;;1.75;0.85;;;21.80;71.70;;;;;;5135296;27;20055;-54
2021/08/25 10:01:22;;;;;;;0.80;0.70;;;21.90;71.80;;;;;;5146803;27;20068;-56
2021/08/25 10:03:48;;;;;;;0.88;0.60;;;21.90;71.80;;;;;;5156574;27;20050;-54
2021/08/25 10:06:16;;;;;;;0.65;0.65;;;21.80;71.70;;;;;;5146491;27;20035;-54
2021/08/25 10:08:42;;;;;;;0.82;0.82;;;21.90;71.80;;;;;;5135591;27;20043;-55
2021/08/25 10:11:08;;;;;;;0.80;0.57;;;21.90;71.80;;;;;;5151632;27;20073;-54
2021/08/25 10:13:34;;;;;;;0.70;0.70;;;21.90;71.70;;;;;;5151764;27;20050;-56
2021/08/25 10:16:00;;;;;;;0.77;0.75;;;21.90;71.70;;;;;;5134717;27;20039;-54
2021/08/25 10:18:37;;;;;;;1.05;0.80;;;21.90;71.70;;;;;;5137166;27;20038;-54
2021/08/25 10:21:03;;;;;;;0.73;0.73;;;21.90;71.70;;;;;;5141366;27;20395;-54
2021/08/25 10:23:54;;;;;;;1.15;0.82;;;21.90;71.70;;;;;;5134985;27;20043;-54
2021/08/25 10:26:19;;;;;;;0.63;0.63;;;21.90;71.60;;;;;;5150934;27;20046;-49
2021/08/25 10:29:08;;;;;;;0.52;0.47;;;21.90;71.60;;;;;;5136084;27;20088;-53
2021/08/25 10:31:48;;;;;;;0.70;0.70;;;21.90;71.60;;;;;;5134376;27;20035;-55
2021/08/25 10:34:16;;;;;;;1.00;0.80;;;22.00;71.60;;;;;;5146379;27;20039;-53
2021/08/25 10:36:42;;;;;;;1.30;0.65;;;21.90;71.60;;;;;;5155068;27;20047;-54
2021/08/25 10:39:29;;;;;;;0.88;0.75;;;21.90;71.60;;;;;;5142042;27;20546;-55
2021/08/25 10:41:55;;;;;;;1.73;0.80;;;21.90;71.50;;;;;;5150896;27;20043;-56
2021/08/25 10:44:40;;;;;;;1.02;0.80;;;21.90;71.50;;;;;;5155080;27;20038;-56
2021/08/25 10:47:07;;;;;;;0.98;0.63;;;22.00;71.60;;;;;;5136421;27;20043;-55
2021/08/25 10:49:34;;;;;;;0.50;0.50;;;21.90;71.50;;;;;;5135309;27;20433;-56
2021/08/25 10:52:15;;;;;;;0.55;0.50;;;22.00;71.60;;;;;;5151756;27;20042;-56
2021/08/25 10:54:41;;;;;;;0.63;0.63;;;22.00;71.50;;;;;;5134442;27;20046;-53
2021/08/25 10:57:08;;;;;;;0.70;0.70;;;22.00;71.60;;;;;;5154856;27;20050;-56
2021/08/25 10:59:34;;;;;;;1.20;0.68;;;22.00;71.60;;;;;;5153209;27;20066;-56
2021/08/25 11:02:00;;;;;;;0.85;0.70;;;21.90;71.50;;;;;;5154753;27;20078;-56
2021/08/25 11:04:26;;;;;;;0.88;0.68;;;22.00;71.50;;;;;;5154235;27;20053;-56
2021/08/25 11:07:02;;;;;;;1.27;0.57;;;22.00;71.50;;;;;;5141061;27;20080;-55
2021/08/25 11:09:30;;;;;;;0.50;0.50;;;22.00;71.60;;;;;;5152804;27;20136;-54
2021/08/25 11:12:12;;;;;;;0.43;0.43;;;22.00;71.50;;;;;;5154289;27;20125;-57
2021/08/25 11:14:55;;;;;;;0.80;0.75;;;22.00;71.50;;;;;;5150472;27;20515;-57
2021/08/25 11:17:25;;;;;;;0.90;0.60;;;22.00;71.50;;;;;;5133869;27;20071;-55
2021/08/25 11:19:53;;;;;;;0.60;0.60;;;22.00;71.50;;;;;;5137625;27;20180;-53
2021/08/25 11:22:34;;;;;;;0.70;0.52;;;22.00;71.50;;;;;;5153223;27;20434;-55
2021/08/25 11:25:08;;;;;;;0.70;0.63;;;22.00;71.40;;;;;;5143354;27;20039;-54
2021/08/25 11:27:45;;;;;;;1.17;0.70;;;22.00;71.50;;;;;;5123302;27;20047;-55
2021/08/25 11:30:13;;;;;;;0.82;0.57;;;22.00;71.40;;;;;;5133346;27;20039;-55
2021/08/25 11:32:49;;;;;;;0.45;0.40;;;22.00;71.50;;;;;;5133381;27;20051;-54
2021/08/25 11:35:43;;;;;;;0.65;0.52;;;22.00;71.40;;;;;;5133815;27;20090;-54
2021/08/25 11:38:11;;;;;;;0.70;0.50;;;22.00;71.40;;;;;;5130731;27;20047;-54
2021/08/25 11:40:39;;;;;;;0.50;0.50;;;22.00;71.40;;;;;;5138986;27;20087;-52
2021/08/25 11:43:06;;;;;;;0.50;0.50;;;22.00;71.40;;;;;;5154581;27;20046;-51
2021/08/25 11:45:32;;;;;;;0.45;0.45;;;22.00;71.40;;;;;;5152748;27;20394;-56
2021/08/25 11:47:59;;;;;;;1.42;0.60;;;22.00;71.40;;;;;;5154216;27;20038;-55
2021/08/25 11:50:31;;;;;;;0.43;0.40;;;22.00;71.40;;;;;;5144424;27;20181;-53
2021/08/25 11:52:58;;;;;;;1.17;0.55;;;22.00;71.40;;;;;;5133342;27;20057;-56
2021/08/25 11:55:24;;;;;;;0.52;0.40;;;22.00;71.30;;;;;;5141398;27;20090;-50
2021/08/25 11:57:53;;;;;;;0.60;0.50;;;22.00;71.30;;;;;;5152482;27;20144;-55
2021/08/25 12:00:24;;;;;;;0.77;0.73;;;22.00;71.30;;;;;;5151024;27;20049;-55
2021/08/25 12:02:57;;;;;;;0.35;0.30;;;22.10;71.40;;;;;;5133082;27;20447;-55
2021/08/25 12:05:31;;;;;;;0.40;0.40;;;22.10;71.40;;;;;;5136083;27;20114;-51
2021/08/25 12:08:17;;;;;;;2.70;0.70;;;22.10;71.40;;;;;;5151293;27;20537;-56
2021/08/25 12:10:45;;;;;;;0.60;0.50;;;22.10;71.40;;;;;;5146953;27;20043;-54
2021/08/25 12:13:44;;;;;;;0.68;0.60;;;22.10;71.40;;;;;;5133052;27;20050;-54
2021/08/25 12:16:23;;;;;;;0.40;0.40;;;22.10;71.30;;;;;;5123988;27;20049;-56
2021/08/25 12:18:51;;;;;;;0.60;0.60;;;22.00;71.30;;;;;;5151948;27;20039;-56
2021/08/25 12:21:17;;;;;;;0.47;0.30;;;22.00;71.30;;;;;;5133072;27;20375;-56
2021/08/25 12:24:04;;;;;;;0.50;0.50;;;22.00;71.30;;;;;;5133907;27;20031;-55
2021/08/25 12:26:31;;;;;;;0.40;0.40;;;22.00;71.30;;;;;;5133069;27;20042;-56
2021/08/25 12:28:58;;;;;;;1.83;0.60;;;22.10;71.40;;;;;;5135621;27;20077;-55
2021/08/25 12:31:26;;;;;;;0.43;0.40;;;22.00;71.30;;;;;;5141742;27;20104;-55
2021/08/25 12:34:17;;;;;;;0.55;0.40;;;22.10;71.40;;;;;;5132673;27;20533;-55
2021/08/25 12:36:51;;;;;;;0.40;0.40;;;22.10;71.30;;;;;;5132270;27;20072;-55
2021/08/25 12:39:21;;;;;;;0.68;0.50;;;22.10;71.30;;;;;;5133585;27;20146;-56
2021/08/25 12:41:48;;;;;;;0.95;0.63;;;22.10;71.40;;;;;;5132575;27;20413;-55
2021/08/25 12:44:15;;;;;;;0.30;0.30;;;22.10;71.40;;;;;;5132628;28;20035;-55
2021/08/25 12:46:55;;;;;;;0.40;0.40;;;22.10;71.40;;;;;;5139303;27;20364;-53
2021/08/25 12:49:22;;;;;;;0.40;0.40;;;22.00;71.30;;;;;;5151138;27;20516;-55
2021/08/25 12:51:48;;;;;;;0.50;0.50;;;22.00;71.30;;;;;;5137290;27;20562;-55